sensor_id;sensor_type;location;lat;lon;timestamp;P1;durP1;ratioP1;P2;durP2;ratioP2
23099;SDS011;53791;50.696;4.396;2022-08-11T00:00:06;2.40;;;2.20;;
23099;SDS011;53791;50.696;4.396;2022-08-11T00:02:42;2.95;;;2.58;;
23099;SDS011;53791;50.696;4.396;2022-08-11T00:05:09;2.50;;;2.30;;
23099;SDS011;53791;50.696;4.396;2022-08-11T00:10:21;2.33;;;2.12;;
23099;SDS011;53791;50.696;4.396;2022-08-11T00:12:54;2.67;;;2.47;;
23099;SDS011;53791;50.696;4.396;2022-08-11T00:15:23;2.80;;;2.50;;
23099;SDS011;53791;50.696;4.396;2022-08-11T00:17:56;3.10;;;2.80;;
23099;SDS011;53791;50.696;4.396;2022-08-11T00:20:32;2.50;;;2.30;;
23099;SDS011;53791;50.696;4.396;2022-08-11T00:23:04;2.50;;;2.30;;
23099;SDS011;53791;50.696;4.396;2022-08-11T00:25:38;2.65;;;2.42;;
23099;SDS011;53791;50.696;4.396;2022-08-11T00:28:29;2.30;;;2.10;;
23099;SDS011;53791;50.696;4.396;2022-08-11T00:31:01;2.92;;;2.60;;
23099;SDS011;53791;50.696;4.396;2022-08-11T00:33:32;3.05;;;2.40;;
23099;SDS011;53791;50.696;4.396;2022-08-11T00:36:03;2.40;;;2.20;;
23099;SDS011;53791;50.696;4.396;2022-08-11T00:38:33;2.55;;;2.35;;
23099;SDS011;53791;50.696;4.396;2022-08-11T00:44:16;3.42;;;2.77;;
23099;SDS011;53791;50.696;4.396;2022-08-11T00:50:00;2.70;;;2.37;;
23099;SDS011;53791;50.696;4.396;2022-08-11T00:55:26;2.60;;;2.40;;
23099;SDS011;53791;50.696;4.396;2022-08-11T01:01:04;2.90;;;2.58;;
23099;SDS011;53791;50.696;4.396;2022-08-11T01:23:41;2.80;;;2.55;;
23099;SDS011;53791;50.696;4.396;2022-08-11T01:35:16;2.98;;;2.75;;
23099;SDS011;53791;50.696;4.396;2022-08-11T01:38:05;3.40;;;3.10;;
23099;SDS011;53791;50.696;4.396;2022-08-11T01:43:39;3.27;;;2.72;;
23099;SDS011;53791;50.696;4.396;2022-08-11T01:46:37;2.80;;;2.60;;
23099;SDS011;53791;50.696;4.396;2022-08-11T01:52:19;2.72;;;2.52;;
23099;SDS011;53791;50.696;4.396;2022-08-11T01:57:41;2.75;;;2.47;;
23099;SDS011;53791;50.696;4.396;2022-08-11T02:00:28;2.80;;;2.50;;
23099;SDS011;53791;50.696;4.396;2022-08-11T02:05:56;3.00;;;2.70;;
23099;SDS011;53791;50.696;4.396;2022-08-11T02:08:41;5.25;;;2.92;;
23099;SDS011;53791;50.696;4.396;2022-08-11T02:11:21;3.37;;;2.83;;
23099;SDS011;53791;50.696;4.396;2022-08-11T02:14:02;2.83;;;2.52;;
23099;SDS011;53791;50.696;4.396;2022-08-11T02:16:46;2.72;;;2.52;;
23099;SDS011;53791;50.696;4.396;2022-08-11T02:22:24;3.27;;;2.98;;
23099;SDS011;53791;50.696;4.396;2022-08-11T02:34:08;3.12;;;2.83;;
23099;SDS011;53791;50.696;4.396;2022-08-11T02:36:54;3.37;;;2.70;;
23099;SDS011;53791;50.696;4.396;2022-08-11T02:39:18;2.42;;;2.22;;
23099;SDS011;53791;50.696;4.396;2022-08-11T02:42:03;3.10;;;2.80;;
23099;SDS011;53791;50.696;4.396;2022-08-11T02:51:09;2.90;;;2.60;;
23099;SDS011;53791;50.696;4.396;2022-08-11T02:53:53;2.67;;;2.45;;
23099;SDS011;53791;50.696;4.396;2022-08-11T02:56:47;3.50;;;2.98;;
23099;SDS011;53791;50.696;4.396;2022-08-11T02:59:23;3.08;;;2.77;;
23099;SDS011;53791;50.696;4.396;2022-08-11T03:08:17;6.58;;;3.00;;
23099;SDS011;53791;50.696;4.396;2022-08-11T03:11:10;3.05;;;2.75;;
23099;SDS011;53791;50.696;4.396;2022-08-11T03:14:09;2.92;;;2.62;;
23099;SDS011;53791;50.696;4.396;2022-08-11T03:16:59;3.25;;;2.80;;
23099;SDS011;53791;50.696;4.396;2022-08-11T03:22:32;3.92;;;3.08;;
23099;SDS011;53791;50.696;4.396;2022-08-11T03:25:05;2.70;;;2.50;;
23099;SDS011;53791;50.696;4.396;2022-08-11T03:27:46;3.98;;;3.15;;
23099;SDS011;53791;50.696;4.396;2022-08-11T03:36:09;3.20;;;2.90;;
23099;SDS011;53791;50.696;4.396;2022-08-11T03:41:44;4.95;;;3.10;;
23099;SDS011;53791;50.696;4.396;2022-08-11T03:44:27;2.87;;;2.60;;
23099;SDS011;53791;50.696;4.396;2022-08-11T03:47:18;3.10;;;2.80;;
23099;SDS011;53791;50.696;4.396;2022-08-11T03:50:01;2.80;;;2.60;;
23099;SDS011;53791;50.696;4.396;2022-08-11T03:52:50;2.98;;;2.67;;
23099;SDS011;53791;50.696;4.396;2022-08-11T03:58:19;3.00;;;2.70;;
23099;SDS011;53791;50.696;4.396;2022-08-11T04:01:14;5.05;;;2.70;;
23099;SDS011;53791;50.696;4.396;2022-08-11T04:03:50;4.40;;;3.17;;
23099;SDS011;53791;50.696;4.396;2022-08-11T04:12:43;3.30;;;3.00;;
23099;SDS011;53791;50.696;4.396;2022-08-11T04:15:27;2.70;;;2.50;;
23099;SDS011;53791;50.696;4.396;2022-08-11T04:18:18;2.95;;;2.65;;
23099;SDS011;53791;50.696;4.396;2022-08-11T04:23:29;3.40;;;3.10;;
23099;SDS011;53791;50.696;4.396;2022-08-11T04:37:26;3.05;;;2.75;;
23099;SDS011;53791;50.696;4.396;2022-08-11T04:52:22;3.75;;;3.37;;
23099;SDS011;53791;50.696;4.396;2022-08-11T05:10:47;3.08;;;2.80;;
23099;SDS011;53791;50.696;4.396;2022-08-11T05:13:33;3.42;;;3.12;;
23099;SDS011;53791;50.696;4.396;2022-08-11T05:16:21;3.83;;;3.42;;
23099;SDS011;53791;50.696;4.396;2022-08-11T05:19:20;3.30;;;3.00;;
23099;SDS011;53791;50.696;4.396;2022-08-11T05:22:07;3.12;;;2.85;;
23099;SDS011;53791;50.696;4.396;2022-08-11T05:25:06;3.20;;;2.90;;
23099;SDS011;53791;50.696;4.396;2022-08-11T05:27:57;3.40;;;3.08;;
23099;SDS011;53791;50.696;4.396;2022-08-11T05:31:02;3.65;;;3.30;;
23099;SDS011;53791;50.696;4.396;2022-08-11T05:33:48;4.20;;;3.40;;
23099;SDS011;53791;50.696;4.396;2022-08-11T05:36:46;3.33;;;3.02;;
23099;SDS011;53791;50.696;4.396;2022-08-11T05:39:16;3.25;;;2.95;;
23099;SDS011;53791;50.696;4.396;2022-08-11T05:42:09;3.60;;;3.22;;
23099;SDS011;53791;50.696;4.396;2022-08-11T05:45:00;4.00;;;3.40;;
23099;SDS011;53791;50.696;4.396;2022-08-11T05:47:50;7.47;;;3.77;;
23099;SDS011;53791;50.696;4.396;2022-08-11T05:50:36;9.35;;;3.35;;
23099;SDS011;53791;50.696;4.396;2022-08-11T05:53:23;3.77;;;3.47;;
23099;SDS011;53791;50.696;4.396;2022-08-11T05:56:09;3.80;;;3.50;;
23099;SDS011;53791;50.696;4.396;2022-08-11T05:58:50;3.52;;;3.22;;
23099;SDS011;53791;50.696;4.396;2022-08-11T06:01:27;3.67;;;3.15;;
23099;SDS011;53791;50.696;4.396;2022-08-11T06:03:52;5.90;;;3.87;;
23099;SDS011;53791;50.696;4.396;2022-08-11T06:09:32;3.90;;;3.60;;
23099;SDS011;53791;50.696;4.396;2022-08-11T06:12:05;6.40;;;3.75;;
23099;SDS011;53791;50.696;4.396;2022-08-11T06:14:40;3.72;;;3.42;;
23099;SDS011;53791;50.696;4.396;2022-08-11T06:17:10;4.03;;;3.72;;
23099;SDS011;53791;50.696;4.396;2022-08-11T06:19:42;4.33;;;3.90;;
23099;SDS011;53791;50.696;4.396;2022-08-11T06:22:12;3.72;;;3.42;;
23099;SDS011;53791;50.696;4.396;2022-08-11T06:24:41;3.90;;;3.50;;
23099;SDS011;53791;50.696;4.396;2022-08-11T06:27:12;3.47;;;3.17;;
23099;SDS011;53791;50.696;4.396;2022-08-11T06:29:48;3.62;;;3.30;;
23099;SDS011;53791;50.696;4.396;2022-08-11T06:32:13;3.67;;;3.37;;
23099;SDS011;53791;50.696;4.396;2022-08-11T06:40:42;4.08;;;3.67;;
23099;SDS011;53791;50.696;4.396;2022-08-11T06:45:59;3.52;;;3.20;;
23099;SDS011;53791;50.696;4.396;2022-08-11T06:48:29;3.50;;;3.20;;
23099;SDS011;53791;50.696;4.396;2022-08-11T06:51:00;3.50;;;3.20;;
23099;SDS011;53791;50.696;4.396;2022-08-11T06:53:39;4.53;;;3.42;;
23099;SDS011;53791;50.696;4.396;2022-08-11T06:56:09;3.95;;;3.47;;
23099;SDS011;53791;50.696;4.396;2022-08-11T06:58:55;4.12;;;3.27;;
23099;SDS011;53791;50.696;4.396;2022-08-11T07:04:39;3.80;;;3.42;;
23099;SDS011;53791;50.696;4.396;2022-08-11T07:10:25;3.60;;;3.30;;
23099;SDS011;53791;50.696;4.396;2022-08-11T07:13:11;4.12;;;3.37;;
23099;SDS011;53791;50.696;4.396;2022-08-11T07:15:59;3.42;;;3.12;;
23099;SDS011;53791;50.696;4.396;2022-08-11T07:18:30;4.42;;;3.95;;
23099;SDS011;53791;50.696;4.396;2022-08-11T07:21:27;3.42;;;3.05;;
23099;SDS011;53791;50.696;4.396;2022-08-11T07:24:14;3.35;;;3.05;;
23099;SDS011;53791;50.696;4.396;2022-08-11T07:27:03;3.08;;;2.75;;
23099;SDS011;53791;50.696;4.396;2022-08-11T07:29:50;3.58;;;2.90;;
23099;SDS011;53791;50.696;4.396;2022-08-11T07:32:31;3.62;;;3.17;;
23099;SDS011;53791;50.696;4.396;2022-08-11T07:35:06;3.95;;;3.12;;
23099;SDS011;53791;50.696;4.396;2022-08-11T07:37:34;3.27;;;2.75;;
23099;SDS011;53791;50.696;4.396;2022-08-11T07:40:02;3.72;;;3.00;;
23099;SDS011;53791;50.696;4.396;2022-08-11T07:42:31;3.22;;;2.77;;
23099;SDS011;53791;50.696;4.396;2022-08-11T07:45:03;3.80;;;3.05;;
23099;SDS011;53791;50.696;4.396;2022-08-11T07:47:49;3.90;;;3.22;;
23099;SDS011;53791;50.696;4.396;2022-08-11T07:50:41;5.62;;;3.33;;
23099;SDS011;53791;50.696;4.396;2022-08-11T07:53:28;3.20;;;2.90;;
23099;SDS011;53791;50.696;4.396;2022-08-11T07:55:57;2.87;;;2.67;;
23099;SDS011;53791;50.696;4.396;2022-08-11T07:58:27;2.95;;;2.70;;
23099;SDS011;53791;50.696;4.396;2022-08-11T08:01:17;3.10;;;2.80;;
23099;SDS011;53791;50.696;4.396;2022-08-11T08:04:05;3.67;;;3.10;;
23099;SDS011;53791;50.696;4.396;2022-08-11T08:06:53;2.60;;;2.40;;
23099;SDS011;53791;50.696;4.396;2022-08-11T08:09:40;3.10;;;2.80;;
23099;SDS011;53791;50.696;4.396;2022-08-11T08:12:31;3.45;;;3.15;;
23099;SDS011;53791;50.696;4.396;2022-08-11T08:15:19;3.52;;;2.75;;
23099;SDS011;53791;50.696;4.396;2022-08-11T08:18:06;3.58;;;2.75;;
23099;SDS011;53791;50.696;4.396;2022-08-11T08:20:38;3.77;;;2.83;;
23099;SDS011;53791;50.696;4.396;2022-08-11T08:23:16;3.90;;;2.83;;
23099;SDS011;53791;50.696;4.396;2022-08-11T08:25:46;3.20;;;2.80;;
23099;SDS011;53791;50.696;4.396;2022-08-11T08:28:15;2.77;;;2.50;;
23099;SDS011;53791;50.696;4.396;2022-08-11T08:30:45;2.60;;;2.33;;
23099;SDS011;53791;50.696;4.396;2022-08-11T08:33:20;4.55;;;2.98;;
23099;SDS011;53791;50.696;4.396;2022-08-11T08:35:51;3.02;;;2.72;;
23099;SDS011;53791;50.696;4.396;2022-08-11T08:38:46;2.65;;;2.33;;
23099;SDS011;53791;50.696;4.396;2022-08-11T08:41:19;2.60;;;2.40;;
23099;SDS011;53791;50.696;4.396;2022-08-11T08:43:52;2.92;;;2.62;;
23099;SDS011;53791;50.696;4.396;2022-08-11T08:46:24;2.90;;;2.60;;
23099;SDS011;53791;50.696;4.396;2022-08-11T08:48:53;5.33;;;2.95;;
23099;SDS011;53791;50.696;4.396;2022-08-11T08:51:22;2.87;;;2.40;;
23099;SDS011;53791;50.696;4.396;2022-08-11T08:54:11;2.80;;;2.35;;
23099;SDS011;53791;50.696;4.396;2022-08-11T08:56:36;10.38;;;2.52;;
23099;SDS011;53791;50.696;4.396;2022-08-11T08:59:07;3.50;;;2.50;;
23099;SDS011;53791;50.696;4.396;2022-08-11T09:01:44;3.58;;;2.83;;
23099;SDS011;53791;50.696;4.396;2022-08-11T09:04:08;3.10;;;2.80;;
23099;SDS011;53791;50.696;4.396;2022-08-11T09:06:36;2.87;;;2.45;;
23099;SDS011;53791;50.696;4.396;2022-08-11T09:09:08;3.20;;;2.80;;
23099;SDS011;53791;50.696;4.396;2022-08-11T09:11:38;4.92;;;2.90;;
23099;SDS011;53791;50.696;4.396;2022-08-11T09:14:31;3.20;;;2.52;;
23099;SDS011;53791;50.696;4.396;2022-08-11T09:16:55;3.08;;;2.50;;
23099;SDS011;53791;50.696;4.396;2022-08-11T09:19:23;3.25;;;2.33;;
23099;SDS011;53791;50.696;4.396;2022-08-11T09:21:52;4.80;;;2.83;;
23099;SDS011;53791;50.696;4.396;2022-08-11T09:24:38;2.90;;;2.60;;
23099;SDS011;53791;50.696;4.396;2022-08-11T09:27:24;2.75;;;2.45;;
23099;SDS011;53791;50.696;4.396;2022-08-11T09:29:55;2.90;;;2.42;;
23099;SDS011;53791;50.696;4.396;2022-08-11T09:32:25;5.47;;;2.15;;
23099;SDS011;53791;50.696;4.396;2022-08-11T09:34:57;3.10;;;2.58;;
23099;SDS011;53791;50.696;4.396;2022-08-11T09:37:27;2.87;;;2.37;;
23099;SDS011;53791;50.696;4.396;2022-08-11T09:40:14;3.55;;;2.55;;
23099;SDS011;53791;50.696;4.396;2022-08-11T09:42:57;8.05;;;2.47;;
23099;SDS011;53791;50.696;4.396;2022-08-11T09:45:45;3.67;;;2.55;;
23099;SDS011;53791;50.696;4.396;2022-08-11T09:48:19;3.37;;;2.83;;
23099;SDS011;53791;50.696;4.396;2022-08-11T09:50:50;2.85;;;2.52;;
23099;SDS011;53791;50.696;4.396;2022-08-11T09:53:20;3.30;;;2.47;;
23099;SDS011;53791;50.696;4.396;2022-08-11T09:55:50;3.20;;;2.40;;
23099;SDS011;53791;50.696;4.396;2022-08-11T09:58:19;2.47;;;2.27;;
23099;SDS011;53791;50.696;4.396;2022-08-11T10:00:49;2.62;;;2.30;;
23099;SDS011;53791;50.696;4.396;2022-08-11T10:03:22;3.25;;;2.42;;
23099;SDS011;53791;50.696;4.396;2022-08-11T10:05:55;2.58;;;2.37;;
23099;SDS011;53791;50.696;4.396;2022-08-11T10:08:46;3.00;;;2.70;;
23099;SDS011;53791;50.696;4.396;2022-08-11T10:11:15;3.60;;;2.75;;
23099;SDS011;53791;50.696;4.396;2022-08-11T10:13:46;2.80;;;2.30;;
23099;SDS011;53791;50.696;4.396;2022-08-11T10:16:36;2.95;;;2.65;;
23099;SDS011;53791;50.696;4.396;2022-08-11T10:19:05;3.00;;;2.65;;
23099;SDS011;53791;50.696;4.396;2022-08-11T10:21:39;4.05;;;3.00;;
23099;SDS011;53791;50.696;4.396;2022-08-11T10:24:05;4.30;;;2.47;;
23099;SDS011;53791;50.696;4.396;2022-08-11T10:26:53;3.70;;;2.60;;
23099;SDS011;53791;50.696;4.396;2022-08-11T10:29:24;4.42;;;2.55;;
23099;SDS011;53791;50.696;4.396;2022-08-11T10:32:19;2.60;;;2.30;;
23099;SDS011;53791;50.696;4.396;2022-08-11T10:35:06;3.37;;;2.62;;
23099;SDS011;53791;50.696;4.396;2022-08-11T10:37:36;4.15;;;2.75;;
23099;SDS011;53791;50.696;4.396;2022-08-11T10:40:04;3.20;;;2.55;;
23099;SDS011;53791;50.696;4.396;2022-08-11T10:42:35;2.75;;;2.37;;
23099;SDS011;53791;50.696;4.396;2022-08-11T10:45:24;2.42;;;1.92;;
23099;SDS011;53791;50.696;4.396;2022-08-11T10:48:08;2.60;;;2.25;;
23099;SDS011;53791;50.696;4.396;2022-08-11T10:50:37;3.72;;;2.50;;
23099;SDS011;53791;50.696;4.396;2022-08-11T10:53:22;2.98;;;2.20;;
23099;SDS011;53791;50.696;4.396;2022-08-11T10:56:08;3.00;;;2.27;;
23099;SDS011;53791;50.696;4.396;2022-08-11T10:58:56;5.80;;;2.35;;
23099;SDS011;53791;50.696;4.396;2022-08-11T11:01:27;5.62;;;2.87;;
23099;SDS011;53791;50.696;4.396;2022-08-11T11:04:07;3.65;;;2.50;;
23099;SDS011;53791;50.696;4.396;2022-08-11T11:06:49;2.77;;;2.33;;
23099;SDS011;53791;50.696;4.396;2022-08-11T11:09:43;3.37;;;2.80;;
23099;SDS011;53791;50.696;4.396;2022-08-11T11:15:17;2.90;;;2.35;;
23099;SDS011;53791;50.696;4.396;2022-08-11T11:18:05;2.75;;;2.40;;
23099;SDS011;53791;50.696;4.396;2022-08-11T11:20:44;2.70;;;2.25;;
23099;SDS011;53791;50.696;4.396;2022-08-11T11:23:25;2.87;;;2.58;;
23099;SDS011;53791;50.696;4.396;2022-08-11T11:26:24;2.35;;;2.08;;
23099;SDS011;53791;50.696;4.396;2022-08-11T11:37:16;2.15;;;1.90;;
23099;SDS011;53791;50.696;4.396;2022-08-11T11:39:44;3.52;;;2.30;;
23099;SDS011;53791;50.696;4.396;2022-08-11T11:42:12;4.35;;;2.55;;
23099;SDS011;53791;50.696;4.396;2022-08-11T11:44:42;3.05;;;2.25;;
23099;SDS011;53791;50.696;4.396;2022-08-11T11:47:11;3.05;;;2.40;;
23099;SDS011;53791;50.696;4.396;2022-08-11T11:49:40;2.90;;;2.40;;
23099;SDS011;53791;50.696;4.396;2022-08-11T11:52:18;5.03;;;3.08;;
23099;SDS011;53791;50.696;4.396;2022-08-11T12:01:36;3.12;;;2.30;;
23099;SDS011;53791;50.696;4.396;2022-08-11T12:04:04;2.67;;;2.27;;
23099;SDS011;53791;50.696;4.396;2022-08-11T12:06:32;3.60;;;2.40;;
23099;SDS011;53791;50.696;4.396;2022-08-11T12:09:00;4.35;;;2.67;;
23099;SDS011;53791;50.696;4.396;2022-08-11T12:11:28;3.22;;;2.55;;
23099;SDS011;53791;50.696;4.396;2022-08-11T12:14:18;3.15;;;2.85;;
23099;SDS011;53791;50.696;4.396;2022-08-11T12:16:51;2.95;;;2.45;;
23099;SDS011;53791;50.696;4.396;2022-08-11T12:19:24;2.20;;;2.00;;
23099;SDS011;53791;50.696;4.396;2022-08-11T12:21:56;3.22;;;2.62;;
23099;SDS011;53791;50.696;4.396;2022-08-11T12:24:42;3.33;;;2.70;;
23099;SDS011;53791;50.696;4.396;2022-08-11T12:27:30;2.33;;;2.12;;
23099;SDS011;53791;50.696;4.396;2022-08-11T12:30:01;3.87;;;2.33;;
23099;SDS011;53791;50.696;4.396;2022-08-11T12:32:34;2.67;;;2.25;;
23099;SDS011;53791;50.696;4.396;2022-08-11T12:35:04;2.80;;;2.47;;
23099;SDS011;53791;50.696;4.396;2022-08-11T12:37:39;2.40;;;2.10;;
23099;SDS011;53791;50.696;4.396;2022-08-11T12:40:23;2.35;;;2.00;;
23099;SDS011;53791;50.696;4.396;2022-08-11T12:43:12;3.47;;;2.58;;
23099;SDS011;53791;50.696;4.396;2022-08-11T12:45:58;2.22;;;1.98;;
23099;SDS011;53791;50.696;4.396;2022-08-11T12:48:36;3.02;;;2.12;;
23099;SDS011;53791;50.696;4.396;2022-08-11T12:51:24;4.65;;;2.30;;
23099;SDS011;53791;50.696;4.396;2022-08-11T12:54:12;3.10;;;1.82;;
23099;SDS011;53791;50.696;4.396;2022-08-11T12:56:45;2.83;;;1.95;;
23099;SDS011;53791;50.696;4.396;2022-08-11T12:59:32;2.75;;;1.98;;
23099;SDS011;53791;50.696;4.396;2022-08-11T13:02:19;3.50;;;2.20;;
23099;SDS011;53791;50.696;4.396;2022-08-11T13:05:06;3.17;;;2.12;;
23099;SDS011;53791;50.696;4.396;2022-08-11T13:07:36;2.65;;;2.02;;
23099;SDS011;53791;50.696;4.396;2022-08-11T13:10:07;2.72;;;1.90;;
23099;SDS011;53791;50.696;4.396;2022-08-11T13:12:36;3.87;;;1.92;;
23099;SDS011;53791;50.696;4.396;2022-08-11T13:15:18;2.92;;;2.35;;
23099;SDS011;53791;50.696;4.396;2022-08-11T13:17:47;2.52;;;2.08;;
23099;SDS011;53791;50.696;4.396;2022-08-11T13:20:20;2.47;;;2.05;;
23099;SDS011;53791;50.696;4.396;2022-08-11T13:22:54;2.77;;;2.10;;
23099;SDS011;53791;50.696;4.396;2022-08-11T13:25:24;3.85;;;2.22;;
23099;SDS011;53791;50.696;4.396;2022-08-11T13:27:56;3.12;;;2.20;;
23099;SDS011;53791;50.696;4.396;2022-08-11T13:30:27;2.50;;;1.90;;
23099;SDS011;53791;50.696;4.396;2022-08-11T13:33:14;2.65;;;1.85;;
23099;SDS011;53791;50.696;4.396;2022-08-11T13:35:46;3.02;;;2.20;;
23099;SDS011;53791;50.696;4.396;2022-08-11T13:38:16;2.70;;;1.90;;
23099;SDS011;53791;50.696;4.396;2022-08-11T13:40:47;2.40;;;1.90;;
23099;SDS011;53791;50.696;4.396;2022-08-11T13:43:17;2.45;;;2.10;;
23099;SDS011;53791;50.696;4.396;2022-08-11T13:45:47;2.05;;;1.70;;
23099;SDS011;53791;50.696;4.396;2022-08-11T13:48:17;2.95;;;2.33;;
23099;SDS011;53791;50.696;4.396;2022-08-11T13:50:44;2.77;;;2.17;;
23099;SDS011;53791;50.696;4.396;2022-08-11T13:53:30;2.15;;;1.75;;
23099;SDS011;53791;50.696;4.396;2022-08-11T13:55:59;2.80;;;1.92;;
23099;SDS011;53791;50.696;4.396;2022-08-11T13:58:27;2.62;;;2.12;;
23099;SDS011;53791;50.696;4.396;2022-08-11T14:00:56;2.62;;;1.87;;
23099;SDS011;53791;50.696;4.396;2022-08-11T14:03:25;2.87;;;2.10;;
23099;SDS011;53791;50.696;4.396;2022-08-11T14:05:56;2.33;;;1.92;;
23099;SDS011;53791;50.696;4.396;2022-08-11T14:08:25;3.02;;;2.17;;
23099;SDS011;53791;50.696;4.396;2022-08-11T14:10:57;3.17;;;2.33;;
23099;SDS011;53791;50.696;4.396;2022-08-11T14:13:44;3.22;;;2.10;;
23099;SDS011;53791;50.696;4.396;2022-08-11T14:16:17;2.40;;;1.90;;
23099;SDS011;53791;50.696;4.396;2022-08-11T14:19:02;2.92;;;2.40;;
23099;SDS011;53791;50.696;4.396;2022-08-11T14:21:36;2.40;;;1.90;;
23099;SDS011;53791;50.696;4.396;2022-08-11T14:24:23;4.45;;;2.40;;
23099;SDS011;53791;50.696;4.396;2022-08-11T14:26:53;2.95;;;2.35;;
23099;SDS011;53791;50.696;4.396;2022-08-11T14:29:22;3.17;;;2.12;;
23099;SDS011;53791;50.696;4.396;2022-08-11T14:31:57;2.87;;;2.33;;
23099;SDS011;53791;50.696;4.396;2022-08-11T14:34:27;3.05;;;1.90;;
23099;SDS011;53791;50.696;4.396;2022-08-11T14:36:58;4.80;;;2.20;;
23099;SDS011;53791;50.696;4.396;2022-08-11T14:39:28;3.45;;;2.25;;
23099;SDS011;53791;50.696;4.396;2022-08-11T14:42:05;2.55;;;1.85;;
23099;SDS011;53791;50.696;4.396;2022-08-11T14:44:52;4.45;;;2.58;;
23099;SDS011;53791;50.696;4.396;2022-08-11T14:47:30;12.93;;;2.50;;
23099;SDS011;53791;50.696;4.396;2022-08-11T14:50:00;3.67;;;2.42;;
23099;SDS011;53791;50.696;4.396;2022-08-11T14:52:34;2.60;;;2.17;;
23099;SDS011;53791;50.696;4.396;2022-08-11T14:55:00;2.98;;;2.02;;
23099;SDS011;53791;50.696;4.396;2022-08-11T14:57:47;2.67;;;1.92;;
23099;SDS011;53791;50.696;4.396;2022-08-11T15:00:16;5.03;;;2.45;;
23099;SDS011;53791;50.696;4.396;2022-08-11T15:02:45;2.60;;;1.92;;
23099;SDS011;53791;50.696;4.396;2022-08-11T15:05:33;3.55;;;2.42;;
23099;SDS011;53791;50.696;4.396;2022-08-11T15:08:02;6.80;;;2.70;;
23099;SDS011;53791;50.696;4.396;2022-08-11T15:10:34;2.58;;;1.80;;
23099;SDS011;53791;50.696;4.396;2022-08-11T15:13:05;2.80;;;2.05;;
23099;SDS011;53791;50.696;4.396;2022-08-11T15:15:33;2.40;;;1.85;;
23099;SDS011;53791;50.696;4.396;2022-08-11T15:18:19;2.80;;;1.95;;
23099;SDS011;53791;50.696;4.396;2022-08-11T15:20:54;2.95;;;2.05;;
23099;SDS011;53791;50.696;4.396;2022-08-11T15:23:41;2.90;;;2.10;;
23099;SDS011;53791;50.696;4.396;2022-08-11T15:26:36;2.75;;;2.10;;
23099;SDS011;53791;50.696;4.396;2022-08-11T15:29:28;3.67;;;2.15;;
23099;SDS011;53791;50.696;4.396;2022-08-11T15:32:16;5.95;;;2.75;;
23099;SDS011;53791;50.696;4.396;2022-08-11T15:34:55;2.45;;;2.00;;
23099;SDS011;53791;50.696;4.396;2022-08-11T15:37:42;2.30;;;1.80;;
23099;SDS011;53791;50.696;4.396;2022-08-11T15:40:18;4.00;;;2.35;;
23099;SDS011;53791;50.696;4.396;2022-08-11T15:43:21;5.03;;;2.80;;
23099;SDS011;53791;50.696;4.396;2022-08-11T15:46:11;2.17;;;1.80;;
23099;SDS011;53791;50.696;4.396;2022-08-11T15:48:43;2.92;;;2.30;;
23099;SDS011;53791;50.696;4.396;2022-08-11T15:51:15;2.85;;;2.08;;
23099;SDS011;53791;50.696;4.396;2022-08-11T15:53:46;4.25;;;2.50;;
23099;SDS011;53791;50.696;4.396;2022-08-11T15:56:22;2.52;;;2.00;;
23099;SDS011;53791;50.696;4.396;2022-08-11T15:58:52;6.40;;;2.65;;
23099;SDS011;53791;50.696;4.396;2022-08-11T16:01:41;2.20;;;1.75;;
23099;SDS011;53791;50.696;4.396;2022-08-11T16:04:27;3.33;;;2.08;;
23099;SDS011;53791;50.696;4.396;2022-08-11T16:07:04;2.95;;;2.20;;
23099;SDS011;53791;50.696;4.396;2022-08-11T16:09:36;3.70;;;2.25;;
23099;SDS011;53791;50.696;4.396;2022-08-11T16:12:12;2.45;;;1.85;;
23099;SDS011;53791;50.696;4.396;2022-08-11T16:14:43;3.77;;;2.20;;
23099;SDS011;53791;50.696;4.396;2022-08-11T16:17:30;26.07;;;3.05;;
23099;SDS011;53791;50.696;4.396;2022-08-11T16:20:00;3.05;;;2.35;;
23099;SDS011;53791;50.696;4.396;2022-08-11T16:22:29;3.45;;;1.95;;
23099;SDS011;53791;50.696;4.396;2022-08-11T16:25:03;2.50;;;1.70;;
23099;SDS011;53791;50.696;4.396;2022-08-11T16:27:39;3.40;;;2.08;;
23099;SDS011;53791;50.696;4.396;2022-08-11T16:30:04;2.33;;;1.92;;
23099;SDS011;53791;50.696;4.396;2022-08-11T16:32:33;2.35;;;1.60;;
23099;SDS011;53791;50.696;4.396;2022-08-11T16:35:03;2.45;;;1.77;;
23099;SDS011;53791;50.696;4.396;2022-08-11T16:37:50;2.50;;;1.90;;
23099;SDS011;53791;50.696;4.396;2022-08-11T16:40:37;6.45;;;2.25;;
23099;SDS011;53791;50.696;4.396;2022-08-11T16:43:20;2.52;;;2.05;;
23099;SDS011;53791;50.696;4.396;2022-08-11T16:46:07;4.53;;;2.45;;
23099;SDS011;53791;50.696;4.396;2022-08-11T16:51:57;3.02;;;1.90;;
23099;SDS011;53791;50.696;4.396;2022-08-11T16:54:27;3.45;;;1.82;;
23099;SDS011;53791;50.696;4.396;2022-08-11T16:57:04;2.85;;;2.05;;
23099;SDS011;53791;50.696;4.396;2022-08-11T16:59:56;2.62;;;1.60;;
23099;SDS011;53791;50.696;4.396;2022-08-11T17:02:27;4.85;;;2.10;;
23099;SDS011;53791;50.696;4.396;2022-08-11T17:05:17;2.95;;;1.98;;
23099;SDS011;53791;50.696;4.396;2022-08-11T17:08:08;2.50;;;1.90;;
23099;SDS011;53791;50.696;4.396;2022-08-11T17:10:57;5.65;;;2.70;;
23099;SDS011;53791;50.696;4.396;2022-08-11T17:13:54;2.02;;;1.52;;
23099;SDS011;53791;50.696;4.396;2022-08-11T17:16:31;2.70;;;1.90;;
23099;SDS011;53791;50.696;4.396;2022-08-11T17:19:09;3.00;;;1.98;;
23099;SDS011;53791;50.696;4.396;2022-08-11T17:21:41;2.20;;;1.60;;
23099;SDS011;53791;50.696;4.396;2022-08-11T17:24:30;2.37;;;1.90;;
23099;SDS011;53791;50.696;4.396;2022-08-11T17:27:00;6.12;;;2.62;;
23099;SDS011;53791;50.696;4.396;2022-08-11T17:29:33;3.58;;;2.25;;
23099;SDS011;53791;50.696;4.396;2022-08-11T17:32:08;14.85;;;4.40;;
23099;SDS011;53791;50.696;4.396;2022-08-11T17:35:03;3.00;;;2.30;;
23099;SDS011;53791;50.696;4.396;2022-08-11T17:37:43;2.33;;;1.72;;
23099;SDS011;53791;50.696;4.396;2022-08-11T17:40:13;2.70;;;1.77;;
23099;SDS011;53791;50.696;4.396;2022-08-11T17:42:46;4.35;;;2.67;;
23099;SDS011;53791;50.696;4.396;2022-08-11T17:45:34;3.27;;;2.17;;
23099;SDS011;53791;50.696;4.396;2022-08-11T17:48:10;2.45;;;1.75;;
23099;SDS011;53791;50.696;4.396;2022-08-11T17:50:56;3.02;;;2.05;;
23099;SDS011;53791;50.696;4.396;2022-08-11T17:53:31;2.62;;;1.85;;
23099;SDS011;53791;50.696;4.396;2022-08-11T17:56:31;2.15;;;1.60;;
23099;SDS011;53791;50.696;4.396;2022-08-11T17:59:15;3.30;;;2.20;;
23099;SDS011;53791;50.696;4.396;2022-08-11T18:02:02;2.83;;;1.90;;
23099;SDS011;53791;50.696;4.396;2022-08-11T18:04:50;2.40;;;1.92;;
23099;SDS011;53791;50.696;4.396;2022-08-11T18:07:19;2.52;;;1.67;;
23099;SDS011;53791;50.696;4.396;2022-08-11T18:10:11;2.27;;;1.75;;
23099;SDS011;53791;50.696;4.396;2022-08-11T18:12:54;2.27;;;1.60;;
23099;SDS011;53791;50.696;4.396;2022-08-11T18:15:42;2.40;;;1.80;;
23099;SDS011;53791;50.696;4.396;2022-08-11T18:18:28;2.70;;;1.75;;
23099;SDS011;53791;50.696;4.396;2022-08-11T18:21:14;2.47;;;1.60;;
23099;SDS011;53791;50.696;4.396;2022-08-11T18:24:02;5.45;;;4.03;;
23099;SDS011;53791;50.696;4.396;2022-08-11T18:26:49;5.05;;;3.05;;
23099;SDS011;53791;50.696;4.396;2022-08-11T18:29:36;2.87;;;2.10;;
23099;SDS011;53791;50.696;4.396;2022-08-11T18:32:23;2.50;;;2.00;;
23099;SDS011;53791;50.696;4.396;2022-08-11T18:35:11;3.15;;;2.12;;
23099;SDS011;53791;50.696;4.396;2022-08-11T18:37:57;3.45;;;2.22;;
23099;SDS011;53791;50.696;4.396;2022-08-11T18:40:46;2.20;;;1.80;;
23099;SDS011;53791;50.696;4.396;2022-08-11T18:43:34;2.90;;;1.82;;
23099;SDS011;53791;50.696;4.396;2022-08-11T18:46:22;3.80;;;2.00;;
23099;SDS011;53791;50.696;4.396;2022-08-11T18:49:12;2.58;;;1.87;;
23099;SDS011;53791;50.696;4.396;2022-08-11T18:52:02;2.20;;;1.52;;
23099;SDS011;53791;50.696;4.396;2022-08-11T18:54:50;2.42;;;1.77;;
23099;SDS011;53791;50.696;4.396;2022-08-11T18:57:38;2.08;;;1.57;;